Time;durP1;ratioP1;P1;durP2;ratioP2;P2;SDS_P1;SDS_P2;PMS_P1;PMS_P2;Temp;Humidity;BMP_temperature;BMP_pressure;BME280_temperature;BME280_humidity;BME280_pressure;Samples;Min_cycle;Max_cycle;Signal;HPM_P1;HPM_P2
2021/11/03 00:01:16;;;;;;;1.33;1.20;;;16.10;99.90;;;16.98;54.93;99741.84;5002845;27;98532;-48
2021/11/03 00:03:46;;;;;;;1.40;1.30;;;16.30;99.90;;;17.02;54.92;99731.78;4966968;27;97784;-51
2021/11/03 00:06:16;;;;;;;1.27;1.13;;;16.40;99.90;;;17.04;54.75;99721.84;5004440;27;98029;-51
2021/11/03 00:08:42;;;;;;;1.40;1.30;;;16.40;99.90;;;17.09;54.49;99722.38;4970534;28;107801;-52
2021/11/03 00:11:09;;;;;;;1.90;1.50;;;16.50;99.90;;;17.11;54.32;99720.44;4960478;28;98938;-51
2021/11/03 00:13:35;;;;;;;1.60;1.17;;;16.50;99.90;;;17.11;54.33;99720.44;4999036;27;97624;-50
2021/11/03 00:16:01;;;;;;;3.90;1.60;;;16.50;99.90;;;17.12;54.52;99732.78;5001321;27;110485;-48
2021/11/03 00:18:27;;;;;;;1.37;1.07;;;16.50;99.90;;;17.11;54.38;99723.09;4988713;27;98525;-47
2021/11/03 00:20:55;;;;;;;1.80;1.40;;;16.50;99.90;;;17.14;54.21;99730.84;5005991;27;98186;-47
2021/11/03 00:23:21;;;;;;;1.33;1.20;;;16.50;99.90;;;17.17;54.29;99725.28;4970123;27;97295;-49
2021/11/03 00:25:47;;;;;;;1.37;1.20;;;16.60;99.90;;;17.20;54.33;99715.22;4979540;27;100360;-48
2021/11/03 00:28:16;;;;;;;1.30;1.20;;;16.60;99.90;;;17.27;54.06;99726.28;5005268;27;100742;-50
2021/11/03 00:30:46;;;;;;;1.40;1.30;;;16.70;99.90;;;17.32;54.12;99713.41;4990277;27;103816;-48
2021/11/03 00:33:12;;;;;;;1.63;1.10;;;16.80;99.90;;;17.46;53.46;99715.84;5007427;27;102468;-49
2021/11/03 00:35:38;;;;;;;1.03;0.90;;;17.10;99.90;;;17.52;53.22;99710.06;4973037;27;98735;-48
2021/11/03 00:38:04;;;;;;;1.20;1.10;;;17.20;99.90;;;17.55;53.41;99704.47;5006844;27;96990;-47
2021/11/03 00:40:31;;;;;;;1.33;1.10;;;17.10;99.90;;;17.61;53.17;99707.59;4966374;27;98566;-50
2021/11/03 00:42:57;;;;;;;1.40;1.30;;;17.20;99.90;;;17.55;53.34;99699.13;4976030;28;98994;-51
2021/11/03 00:45:24;;;;;;;1.00;0.90;;;17.10;99.90;;;17.55;53.35;99700.97;4974081;27;96824;-49
2021/11/03 00:47:49;;;;;;;2.27;1.43;;;17.00;99.90;;;17.53;53.25;99700.22;4976183;28;98642;-51
2021/11/03 00:50:17;;;;;;;1.23;0.97;;;17.00;99.90;;;17.53;53.43;99700.22;5007336;27;97373;-52
2021/11/03 00:52:42;;;;;;;1.40;1.30;;;17.00;99.90;;;17.53;53.23;99701.09;4992002;27;98114;-48
2021/11/03 00:55:08;;;;;;;1.17;1.03;;;17.00;99.90;;;17.50;53.29;99706.66;4998113;27;97568;-51
2021/11/03 00:57:34;;;;;;;1.30;1.10;;;16.90;99.90;;;17.44;53.22;99707.13;4968517;27;99040;-49
2021/11/03 01:00:01;;;;;;;2.07;1.20;;;16.80;99.90;;;17.43;53.24;99713.44;4973588;28;103617;-48
2021/11/03 01:02:26;;;;;;;1.27;1.17;;;16.80;99.90;;;17.43;53.41;99716.09;4971417;27;98936;-47
2021/11/03 01:04:52;;;;;;;2.00;1.47;;;16.80;99.90;;;17.44;53.16;99707.13;4973192;27;98185;-49
2021/11/03 01:07:18;;;;;;;1.20;1.10;;;16.90;99.90;;;17.44;53.47;99712.47;4951835;27;98987;-49
2021/11/03 01:09:44;;;;;;;2.07;1.33;;;16.80;99.90;;;17.43;53.54;99713.44;5002321;27;100256;-51
2021/11/03 01:12:10;;;;;;;1.73;1.20;;;16.80;99.90;;;17.43;53.41;99716.09;4974234;27;98764;-47
2021/11/03 01:14:37;;;;;;;1.30;1.20;;;16.80;99.90;;;17.47;53.23;99716.69;5000719;27;103657;-51
2021/11/03 01:17:04;;;;;;;2.53;1.30;;;16.90;99.90;;;17.51;53.08;99723.50;4974388;28;99792;-47
2021/11/03 01:19:31;;;;;;;1.20;1.10;;;17.10;99.90;;;17.51;53.16;99723.50;4998534;27;98028;-48
2021/11/03 01:21:58;;;;;;;1.20;1.10;;;17.00;99.90;;;17.54;53.26;99723.25;4971801;28;97592;-50
2021/11/03 01:24:24;;;;;;;0.90;0.90;;;17.00;99.90;;;17.60;52.97;99716.56;4970395;27;96972;-48
2021/11/03 01:26:51;;;;;;;2.17;1.27;;;17.20;99.90;;;17.62;52.86;99709.31;4974518;28;99426;-51
2021/11/03 01:29:16;;;;;;;1.20;1.10;;;17.20;99.90;;;17.66;52.49;99710.78;4987722;27;98785;-55
2021/11/03 01:31:43;;;;;;;1.53;1.20;;;17.30;99.90;;;17.69;52.75;99705.22;4970345;28;96898;-49
2021/11/03 01:34:09;;;;;;;2.40;1.30;;;17.30;99.90;;;17.68;52.53;99699.03;4976205;28;98462;-48
2021/11/03 01:36:35;;;;;;;1.10;1.00;;;17.30;99.90;;;17.67;52.42;99707.13;4972295;27;99493;-49
2021/11/03 01:39:03;;;;;;;1.80;1.40;;;17.30;99.90;;;17.65;52.79;99693.06;5002502;27;100723;-50
2021/11/03 01:41:29;;;;;;;1.80;1.30;;;17.20;99.80;;;17.61;52.85;99687.13;4966258;27;98408;-52
2021/11/03 01:44:11;;;;;;;1.20;1.10;;;17.10;99.90;;;17.57;52.94;99684.84;4974428;28;98039;-48
2021/11/03 01:47:17;;;;;;;1.63;1.30;;;17.00;99.60;;;17.52;52.90;99687.88;4966611;27;103672;-49
2021/11/03 01:49:43;;;;;;;1.57;1.27;;;16.90;99.90;;;17.52;52.78;99682.53;4935512;28;103745;-49
2021/11/03 01:52:13;;;;;;;1.00;0.90;;;17.00;99.90;;;17.54;52.78;99686.78;4970783;27;98341;-49
2021/11/03 01:54:55;;;;;;;1.43;1.33;;;17.00;99.90;;;17.58;53.06;99678.53;4972711;28;97477;-47
2021/11/03 01:57:28;;;;;;;2.63;1.40;;;17.10;99.90;;;17.67;52.57;99675.13;4980755;27;98009;-47
2021/11/03 02:00:06;;;;;;;1.63;1.10;;;17.30;99.90;;;17.76;52.14;99672.59;4997517;27;97551;-48
2021/11/03 02:02:33;;;;;;;1.50;1.23;;;17.50;99.90;;;17.77;52.13;99670.78;4996937;27;98852;-47
2021/11/03 02:04:59;;;;;;;1.50;1.33;;;17.50;99.90;;;17.85;51.99;99655.00;4995426;28;97003;-47
2021/11/03 02:07:27;;;;;;;1.27;1.17;;;17.60;99.90;;;17.93;51.90;99655.22;4991248;27;105531;-47
2021/11/03 02:09:54;;;;;;;1.90;1.23;;;17.70;99.90;;;17.98;51.91;99647.69;4997273;27;96766;-48
2021/11/03 02:12:27;;;;;;;1.43;1.30;;;17.80;99.90;;;18.05;51.64;99648.88;4997519;27;97432;-48
2021/11/03 02:14:55;;;;;;;2.27;1.20;;;17.90;99.90;;;18.16;51.36;99631.13;4997387;28;97271;-48
2021/11/03 02:17:24;;;;;;;2.00;1.10;;;18.00;99.80;;;18.25;50.75;99628.56;4994873;28;100237;-48
2021/11/03 02:19:55;;;;;;;1.33;1.23;;;18.20;99.50;;;18.30;50.66;99625.50;4996192;28;100173;-46
2021/11/03 02:22:49;;;;;;;2.10;1.30;;;18.20;99.30;;;18.39;50.36;99614.91;4992675;27;97534;-46
2021/11/03 02:25:23;;;;;;;1.20;1.10;;;18.40;99.20;;;18.43;50.30;99610.97;5022922;27;97359;-47
2021/11/03 02:27:51;;;;;;;1.60;1.17;;;18.40;98.90;;;18.49;50.04;99619.44;4996112;28;103133;-51
2021/11/03 02:30:22;;;;;;;1.03;0.90;;;18.50;98.80;;;18.47;50.15;99619.56;4990896;27;98240;-55
2021/11/03 02:33:08;;;;;;;1.77;1.57;;;18.40;98.70;;;18.40;50.32;99615.75;5018603;27;96866;-48
2021/11/03 02:35:38;;;;;;;1.43;1.33;;;18.30;98.30;;;18.29;50.68;99613.13;5012254;27;96759;-50
2021/11/03 02:38:06;;;;;;;1.53;1.20;;;18.10;98.80;;;18.26;50.83;99619.56;4995608;27;100353;-47
2021/11/03 02:40:40;;;;;;;1.40;1.30;;;18.00;99.50;;;18.22;50.64;99622.59;4989102;27;97022;-47
2021/11/03 02:43:30;;;;;;;2.00;1.63;;;17.90;98.60;;;18.12;51.04;99611.88;4998110;27;101070;-47
2021/11/03 02:46:01;;;;;;;1.50;1.40;;;17.80;98.00;;;18.00;51.42;99613.72;4986848;27;97028;-47
2021/11/03 02:48:31;;;;;;;2.40;1.40;;;17.50;98.80;;;17.94;51.40;99614.25;4990203;28;99766;-51
2021/11/03 02:51:14;;;;;;;2.43;1.40;;;17.40;98.90;;;17.82;51.81;99604.59;4986616;28;98142;-49
2021/11/03 02:53:51;;;;;;;2.20;1.53;;;17.20;98.60;;;17.68;52.26;99612.84;4988936;27;97521;-47
2021/11/03 02:56:22;;;;;;;1.80;1.23;;;17.00;99.60;;;17.60;52.41;99609.94;4987947;27;97587;-55
2021/11/03 02:58:48;;;;;;;2.23;1.43;;;16.90;99.90;;;17.54;52.58;99611.28;4992511;28;103981;-49
2021/11/03 03:01:20;;;;;;;2.23;1.40;;;16.80;99.90;;;17.48;52.79;99611.75;4997948;27;97366;-47
2021/11/03 03:03:47;;;;;;;1.63;1.40;;;16.70;99.00;;;17.34;53.16;99612.88;4988418;28;96744;-48
2021/11/03 03:06:20;;;;;;;1.90;1.50;;;16.50;99.20;;;17.21;53.51;99620.13;5025563;27;97988;-48
2021/11/03 03:08:47;;;;;;;1.83;1.73;;;16.30;99.70;;;17.07;53.78;99623.03;4988838;27;101821;-47
2021/11/03 03:11:14;;;;;;;3.23;2.40;;;16.10;99.90;;;17.01;53.94;99618.22;5010514;27;97089;-49
2021/11/03 03:13:41;;;;;;;2.23;2.03;;;16.00;99.60;;;16.90;54.20;99622.56;4982606;27;97204;-48
2021/11/03 03:16:07;;;;;;;2.53;1.80;;;15.80;99.90;;;16.83;54.29;99629.34;5021791;27;96876;-47
2021/11/03 03:18:33;;;;;;;1.50;1.40;;;15.80;99.90;;;16.77;54.32;99637.78;4994180;27;99844;-48
2021/11/03 03:20:58;;;;;;;1.87;1.70;;;15.80;99.90;;;16.75;54.69;99638.88;4995960;27;97300;-48
2021/11/03 03:23:24;;;;;;;1.40;1.30;;;15.70;99.90;;;16.72;54.43;99645.28;4989874;27;97173;-49
2021/11/03 03:25:52;;;;;;;1.70;1.60;;;15.80;99.90;;;16.68;54.44;99654.50;4993638;28;97472;-47
2021/11/03 03:28:18;;;;;;;1.60;1.50;;;15.80;99.90;;;16.70;54.91;99647.22;4988883;27;97225;-51
2021/11/03 03:30:45;;;;;;;1.77;1.23;;;15.80;99.90;;;16.73;54.82;99647.00;5013416;27;98879;-47
2021/11/03 03:33:11;;;;;;;1.40;1.20;;;15.90;99.90;;;16.76;54.73;99644.09;4995123;28;97190;-49
2021/11/03 03:35:37;;;;;;;1.30;1.20;;;16.00;99.90;;;16.76;54.61;99641.41;5010060;27;98826;-47
2021/11/03 03:38:03;;;;;;;1.10;1.00;;;16.00;99.90;;;16.77;54.61;99643.13;5023121;27;99427;-47
2021/11/03 03:40:29;;;;;;;2.83;2.57;;;16.10;99.90;;;16.79;54.23;99638.53;4991497;28;97658;-47
2021/11/03 03:42:55;;;;;;;1.93;1.73;;;16.00;99.70;;;16.77;54.26;99643.13;4994576;28;97031;-48
2021/11/03 03:45:22;;;;;;;1.80;1.70;;;15.90;99.90;;;16.73;54.41;99641.66;4991386;27;98437;-47
2021/11/03 03:47:47;;;;;;;1.50;1.33;;;15.90;99.60;;;16.69;55.02;99650.84;4989641;28;96721;-47
2021/11/03 03:50:13;;;;;;;1.53;1.30;;;15.70;99.90;;;16.68;54.68;99638.50;4996247;28;96836;-47
2021/11/03 03:52:40;;;;;;;1.47;1.03;;;15.80;99.90;;;16.72;54.75;99639.97;4996230;27;106448;-48
2021/11/03 03:55:08;;;;;;;1.20;1.10;;;15.90;99.90;;;16.82;54.42;99643.63;4996912;27;97622;-47
2021/11/03 03:57:35;;;;;;;1.20;1.10;;;16.10;99.90;;;16.91;54.13;99648.22;4993521;27;96707;-47
2021/11/03 04:00:04;;;;;;;1.20;1.10;;;16.30;99.90;;;17.06;54.04;99642.66;5026765;27;97235;-47
2021/11/03 04:02:30;;;;;;;1.50;1.40;;;16.60;99.90;;;17.13;53.74;99657.22;4993353;27;97214;-47
2021/11/03 04:04:55;;;;;;;1.37;1.20;;;16.60;99.80;;;17.14;53.54;99656.25;4996773;28;97419;-47
2021/11/03 04:07:21;;;;;;;1.60;1.50;;;16.60;99.90;;;17.15;53.61;99652.59;4985663;27;113097;-51
2021/11/03 04:09:47;;;;;;;1.47;1.10;;;16.60;99.90;;;17.18;53.34;99655.88;5000674;27;103936;-48
2021/11/03 04:12:13;;;;;;;1.83;1.30;;;16.60;99.90;;;17.18;53.47;99652.38;4998375;28;107529;-50
2021/11/03 04:14:39;;;;;;;1.60;1.50;;;16.50;99.90;;;17.14;53.41;99658.91;4996385;27;107001;-51
2021/11/03 04:17:04;;;;;;;2.77;2.40;;;16.50;99.90;;;17.10;53.31;99663.63;4995696;27;104029;-48
2021/11/03 04:19:30;;;;;;;3.67;1.90;;;16.30;99.70;;;17.00;53.65;99660.00;4999198;27;104382;-49
2021/11/03 04:21:56;;;;;;;2.27;2.07;;;16.10;99.90;;;16.93;53.80;99664.13;5027199;27;97313;-51
2021/11/03 04:24:22;;;;;;;1.30;1.20;;;15.90;99.90;;;16.86;54.13;99668.19;4995318;27;97322;-51
2021/11/03 04:26:49;;;;;;;2.03;1.60;;;15.90;99.90;;;16.80;54.25;99669.53;4996441;27;111369;-47
2021/11/03 04:29:17;;;;;;;2.03;1.60;;;15.90;99.90;;;16.75;54.59;99678.81;4992831;28;99260;-50
2021/11/03 04:31:44;;;;;;;1.40;1.13;;;15.80;99.90;;;16.75;54.35;99681.47;4991898;28;97910;-47
2021/11/03 04:34:10;;;;;;;1.50;1.40;;;15.90;99.90;;;16.75;54.45;99677.00;5000770;28;96869;-48
2021/11/03 04:36:36;;;;;;;4.10;3.00;;;15.90;99.90;;;16.75;54.22;99671.69;4975477;27;99066;-49
2021/11/03 04:39:05;;;;;;;1.30;1.17;;;15.90;99.90;;;16.78;54.23;99675.91;4999513;28;99765;-47
2021/11/03 04:41:32;;;;;;;1.67;1.47;;;16.00;99.90;;;16.74;54.34;99683.28;4993654;27;100639;-50
2021/11/03 04:43:58;;;;;;;3.50;3.17;;;15.90;99.90;;;16.71;54.47;99680.88;4997241;27;97910;-47
2021/11/03 04:46:23;;;;;;;1.40;1.30;;;15.90;99.90;;;16.72;54.67;99671.06;4997545;27;96975;-49
2021/11/03 04:48:50;;;;;;;1.40;1.30;;;15.90;99.90;;;16.77;54.41;99669.75;4994131;28;99097;-50
2021/11/03 04:51:16;;;;;;;1.37;1.27;;;16.10;99.90;;;16.80;54.24;99664.22;4996069;28;97109;-47
2021/11/03 04:53:42;;;;;;;1.53;1.10;;;16.20;99.90;;;16.82;54.11;99656.94;4989971;27;97030;-52
2021/11/03 04:56:10;;;;;;;1.33;1.00;;;16.10;99.90;;;16.92;53.97;99660.59;4998758;28;99280;-49
2021/11/03 04:58:36;;;;;;;1.27;1.10;;;16.40;99.90;;;17.07;53.39;99655.00;4991786;27;99186;-46
2021/11/03 05:01:03;;;;;;;1.67;1.30;;;16.70;99.90;;;17.14;53.23;99656.25;4994533;28;97400;-47
2021/11/03 05:03:29;;;;;;;1.10;1.00;;;16.80;99.90;;;17.27;52.81;99653.47;4989756;27;97173;-48
2021/11/03 05:05:57;;;;;;;1.27;1.17;;;16.90;99.90;;;17.35;52.54;99646.53;5021507;27;97505;-47
2021/11/03 05:08:23;;;;;;;2.03;1.37;;;17.10;99.90;;;17.40;52.28;99648.88;4992451;28;99233;-48
2021/11/03 05:10:49;;;;;;;1.60;1.50;;;17.10;99.40;;;17.38;52.51;99638.31;4997618;27;97364;-48
2021/11/03 05:13:15;;;;;;;1.83;1.40;;;17.00;99.90;;;17.34;52.49;99642.19;5004422;27;97310;-50
2021/11/03 05:15:41;;;;;;;1.20;1.10;;;16.80;99.90;;;17.40;52.33;99631.06;4991660;27;98721;-49
2021/11/03 05:18:08;;;;;;;2.00;1.10;;;16.90;99.90;;;17.54;51.94;99638.78;4995121;28;97334;-47
2021/11/03 05:20:34;;;;;;;1.20;1.07;;;17.20;99.90;;;17.68;51.63;99644.84;4994218;27;96911;-48
2021/11/03 05:23:01;;;;;;;1.30;1.20;;;17.40;99.90;;;17.83;51.28;99638.28;4999577;28;97572;-49
2021/11/03 05:25:28;;;;;;;1.37;1.20;;;17.70;99.70;;;17.92;51.08;99642.00;4990901;27;97484;-48
2021/11/03 05:27:55;;;;;;;1.20;1.10;;;17.80;99.40;;;18.02;50.75;99627.78;4994001;27;98375;-47
2021/11/03 05:30:23;;;;;;;0.80;0.80;;;17.90;99.30;;;18.09;50.81;99634.31;4983167;28;96845;-48
2021/11/03 05:32:49;;;;;;;1.73;1.30;;;18.00;99.20;;;18.18;50.35;99631.84;4992584;28;97022;-48
2021/11/03 05:35:16;;;;;;;1.10;1.00;;;18.20;99.00;;;18.19;50.26;99630.88;5012347;27;100822;-47
2021/11/03 05:37:42;;;;;;;1.30;1.20;;;18.20;98.80;;;18.19;50.39;99637.06;4990453;27;101107;-50
2021/11/03 05:40:14;;;;;;;1.97;1.37;;;18.20;98.80;;;18.20;50.33;99640.56;4988746;28;97224;-48
2021/11/03 05:42:41;;;;;;;1.40;1.30;;;18.10;98.60;;;18.09;50.62;99633.47;4990434;27;97191;-47
2021/11/03 05:45:07;;;;;;;1.80;1.20;;;17.90;98.60;;;18.01;50.84;99626.09;5014302;27;97032;-50
2021/11/03 05:47:33;;;;;;;1.67;1.50;;;17.70;98.90;;;17.99;50.83;99630.72;4996304;28;97244;-47
2021/11/03 05:50:00;;;;;;;1.53;1.43;;;17.70;99.70;;;17.94;51.06;99614.25;4998401;28;96781;-47
2021/11/03 05:52:27;;;;;;;1.03;0.93;;;17.60;99.20;;;17.94;51.20;99611.56;4991688;28;97041;-48
2021/11/03 05:54:53;;;;;;;1.40;1.30;;;17.70;99.70;;;17.95;50.81;99613.28;4995349;28;96834;-47
2021/11/03 05:57:27;;;;;;;1.43;1.33;;;17.60;99.80;;;17.93;51.07;99617.84;4994706;27;99864;-48
2021/11/03 05:59:55;;;;;;;2.20;1.60;;;17.60;98.90;;;17.89;51.04;99616.44;4998603;27;98177;-47
2021/11/03 06:02:21;;;;;;;2.03;1.77;;;17.60;99.50;;;17.84;51.09;99614.16;4999158;27;99540;-47
2021/11/03 06:04:47;;;;;;;2.30;2.10;;;17.50;99.30;;;17.76;51.52;99616.59;4992552;28;100188;-46
2021/11/03 06:07:15;;;;;;;2.03;1.83;;;17.30;98.00;;;17.69;51.90;99619.88;5002383;27;96833;-49
2021/11/03 06:09:41;;;;;;;2.03;1.50;;;17.10;98.70;;;17.60;52.13;99612.59;4995256;27;96688;-47
2021/11/03 06:12:08;;;;;;;2.50;1.50;;;16.90;99.90;;;17.53;51.98;99615.75;4996374;27;96856;-47
2021/11/03 06:14:35;;;;;;;1.80;1.70;;;16.80;99.90;;;17.49;52.37;99602.78;4987444;28;99317;-52
2021/11/03 06:17:01;;;;;;;2.17;1.97;;;16.80;99.90;;;17.47;52.36;99605.56;4995989;28;99216;-49
2021/11/03 06:19:27;;;;;;;2.77;2.40;;;16.90;99.70;;;17.41;52.22;99606.09;4984282;27;104769;-51
2021/11/03 06:21:54;;;;;;;1.83;1.63;;;16.70;99.00;;;17.36;52.50;99607.41;4993593;28;97333;-46
2021/11/03 06:24:24;;;;;;;1.87;1.77;;;16.60;99.90;;;17.28;53.08;99605.38;4993544;27;97796;-49
2021/11/03 06:26:50;;;;;;;2.33;2.03;;;16.50;99.90;;;17.23;52.84;99602.25;4994006;28;99475;-47
2021/11/03 06:29:16;;;;;;;2.37;2.17;;;16.40;99.90;;;17.17;52.86;99602.72;4997329;27;96983;-49
2021/11/03 06:31:42;;;;;;;4.27;3.87;;;16.40;99.70;;;17.05;53.11;99606.34;4990922;27;97015;-47
2021/11/03 06:34:08;;;;;;;6.37;4.87;;;16.10;99.90;;;16.98;53.35;99613.13;4995203;27;97452;-48
2021/11/03 06:36:38;;;;;;;3.30;3.00;;;16.00;99.90;;;16.89;53.69;99604.88;4988036;27;98572;-49
2021/11/03 06:39:08;;;;;;;4.70;4.10;;;15.90;99.90;;;16.78;53.78;99602.22;4994366;27;97129;-52
2021/11/03 06:41:37;;;;;;;2.60;2.40;;;15.70;99.90;;;16.67;54.22;99610.19;4986640;27;97388;-47
2021/11/03 06:44:04;;;;;;;6.40;5.80;;;15.60;99.90;;;16.62;54.30;99609.66;4989708;27;98322;-49
2021/11/03 06:46:30;;;;;;;3.23;2.73;;;15.50;99.90;;;16.59;54.89;99609.91;4990293;27;97477;-48
2021/11/03 06:48:56;;;;;;;1.57;1.47;;;15.50;99.90;;;16.58;54.55;99605.53;4999242;27;97032;-47
2021/11/03 06:51:22;;;;;;;2.27;2.07;;;15.60;99.90;;;16.57;54.54;99596.72;4989572;28;97005;-51
2021/11/03 06:53:48;;;;;;;4.77;4.30;;;15.60;99.90;;;16.59;54.55;99602.75;4993416;28;100342;-48
2021/11/03 06:56:14;;;;;;;3.13;2.83;;;15.60;99.90;;;16.57;54.69;99593.19;4994939;28;98510;-50
2021/11/03 06:58:40;;;;;;;4.20;3.80;;;15.60;99.90;;;16.55;54.78;99595.97;4987149;27;97151;-49
2021/11/03 07:01:10;;;;;;;4.23;3.33;;;15.60;99.90;;;16.55;54.56;99595.97;4994258;28;96975;-47
2021/11/03 07:03:37;;;;;;;6.37;5.13;;;15.60;99.90;;;16.55;54.53;99598.63;4990641;27;98728;-50
2021/11/03 07:06:04;;;;;;;5.43;4.90;;;15.60;99.90;;;16.55;54.53;99589.81;4989373;28;97244;-49
2021/11/03 07:08:30;;;;;;;3.20;2.63;;;15.60;99.90;;;16.54;54.50;99593.44;4993938;27;97267;-50
2021/11/03 07:11:00;;;;;;;8.00;5.67;;;15.60;99.90;;;16.57;54.73;99587.88;4986631;28;98077;-47
2021/11/03 07:13:28;;;;;;;6.80;5.93;;;15.60;99.90;;;16.56;54.78;99586.19;4989961;27;97537;-52
2021/11/03 07:15:54;;;;;;;3.50;3.20;;;15.60;99.90;;;16.55;54.80;99590.66;4990472;28;98528;-51
2021/11/03 07:18:21;;;;;;;2.53;2.33;;;15.60;99.90;;;16.54;54.63;99591.63;4987332;27;97370;-49
2021/11/03 07:20:48;;;;;;;1.80;1.70;;;15.60;99.90;;;16.55;54.89;99595.13;4993756;27;96970;-48
2021/11/03 07:23:16;;;;;;;2.27;2.07;;;15.60;99.90;;;16.55;55.01;99601.31;4993485;27;99883;-48
2021/11/03 07:25:43;;;;;;;2.10;1.90;;;15.60;99.90;;;16.57;54.65;99594.03;4992712;28;103857;-51
2021/11/03 07:28:10;;;;;;;2.00;1.80;;;15.70;99.90;;;16.60;54.77;99598.28;4991865;28;97127;-49
2021/11/03 07:30:38;;;;;;;2.83;1.90;;;15.70;99.90;;;16.66;54.54;99597.81;4988867;27;97371;-48
2021/11/03 07:33:06;;;;;;;6.30;3.17;;;15.90;99.90;;;16.70;54.42;99598.47;4987895;28;98588;-49
2021/11/03 07:35:32;;;;;;;6.67;6.03;;;15.90;99.90;;;16.72;54.19;99597.38;4991695;27;97353;-49
2021/11/03 07:37:59;;;;;;;4.03;3.63;;;15.90;99.90;;;16.75;54.22;99597.13;4995875;27;96736;-49
2021/11/03 07:40:30;;;;;;;1.93;1.73;;;15.90;99.90;;;16.78;54.03;99590.69;4991179;28;96900;-50
2021/11/03 07:42:58;;;;;;;5.03;4.37;;;15.90;99.90;;;16.79;53.92;99593.28;4989644;28;99573;-49
2021/11/03 07:45:26;;;;;;;2.27;2.07;;;16.00;99.90;;;16.78;54.31;99586.25;5007680;27;100070;-50
2021/11/03 07:47:52;;;;;;;3.53;2.90;;;15.90;99.90;;;16.79;54.23;99587.94;4993346;28;97444;-51
2021/11/03 07:50:23;;;;;;;4.03;1.73;;;16.00;99.90;;;16.82;54.04;99581.53;4985661;28;97241;-53
2021/11/03 07:52:49;;;;;;;3.87;3.50;;;16.00;99.90;;;16.82;54.12;99587.69;4990256;27;101679;-48
2021/11/03 07:55:16;;;;;;;6.83;6.13;;;16.00;99.90;;;16.79;54.10;99598.59;4962866;28;98664;-50
2021/11/03 07:57:42;;;;;;;7.70;4.47;;;15.90;99.90;;;16.72;54.20;99608.03;4992047;27;97558;-46
2021/11/03 08:00:20;;;;;;;2.50;2.30;;;15.80;99.90;;;16.73;54.21;99614.19;4964851;27;99269;-51
2021/11/03 08:02:46;;;;;;;4.17;3.57;;;15.80;99.90;;;16.73;54.51;99608.88;4964823;27;102982;-50
2021/11/03 08:05:12;;;;;;;5.70;2.13;;;15.80;99.90;;;16.75;54.16;99615.75;4964580;27;112394;-47
2021/11/03 08:07:38;;;;;;;1.60;1.50;;;15.90;99.90;;;16.75;54.42;99613.09;4960322;27;98122;-49
2021/11/03 08:10:10;;;;;;;4.17;3.77;;;15.90;99.90;;;16.78;54.05;99618.22;4969138;27;98676;-48
2021/11/03 08:12:36;;;;;;;3.13;2.57;;;16.00;99.90;;;16.79;54.03;99614.56;4963471;27;98162;-48
2021/11/03 08:15:03;;;;;;;2.17;1.40;;;16.00;99.90;;;16.86;54.01;99618.44;4969885;28;98793;-52
2021/11/03 08:17:29;;;;;;;2.27;1.53;;;16.10;99.90;;;16.89;54.07;99618.19;4963231;27;98240;-53
2021/11/03 08:19:57;;;;;;;1.90;1.60;;;16.20;99.90;;;16.95;53.74;99614.22;4973763;28;98007;-51
2021/11/03 08:22:24;;;;;;;1.77;1.50;;;16.30;99.90;;;17.00;53.83;99616.53;4981420;27;99257;-51
2021/11/03 08:24:55;;;;;;;1.37;1.27;;;16.40;99.90;;;17.06;53.50;99624.00;4966208;28;97677;-52
2021/11/03 08:27:22;;;;;;;1.40;1.17;;;16.50;99.90;;;17.14;53.24;99613.63;4966335;27;98858;-52
2021/11/03 08:29:51;;;;;;;14.23;8.43;;;16.60;99.90;;;16.22;49.88;99618.03;5001439;27;99414;-50
2021/11/03 08:32:22;;;;;;;7.60;4.53;;;15.50;99.90;;;16.38;55.07;99615.06;4964788;28;98629;-52
2021/11/03 08:34:49;;;;;;;8.73;6.37;;;15.40;99.90;;;16.34;55.00;99610.91;4964078;28;104263;-50
2021/11/03 08:37:20;;;;;;;5.67;4.30;;;15.40;99.90;;;16.29;55.09;99610.41;4970245;28;98870;-48
2021/11/03 08:39:51;;;;;;;4.60;4.13;;;15.40;99.90;;;16.30;55.07;99604.97;4966582;27;100122;-54
2021/11/03 08:42:18;;;;;;;5.53;4.07;;;15.30;99.90;;;16.28;55.31;99604.25;4965257;27;99354;-54
2021/11/03 08:44:44;;;;;;;7.37;6.23;;;15.40;99.90;;;16.25;54.60;99604.50;4965808;28;101569;-51
2021/11/03 08:47:11;;;;;;;8.07;4.70;;;15.40;99.90;;;16.25;55.24;99609.81;4971983;28;99019;-53
2021/11/03 08:49:38;;;;;;;8.07;6.90;;;15.30;99.90;;;16.22;55.66;99607.41;4963936;27;99335;-50
2021/11/03 08:52:05;;;;;;;7.97;6.27;;;15.30;99.90;;;16.18;55.18;99597.94;4966976;28;100134;-50
2021/11/03 08:54:40;;;;;;;9.57;6.97;;;15.20;99.90;;;16.13;54.63;99599.25;4962776;27;99547;-54
2021/11/03 08:57:09;;;;;;;9.20;6.40;;;15.10;99.90;;;16.05;54.51;99597.16;4990728;27;98309;-54
2021/11/03 08:59:35;;;;;;;8.20;7.30;;;15.10;99.90;;;15.91;55.41;99600.88;4961348;27;98807;-52
2021/11/03 09:02:03;;;;;;;8.73;7.10;;;14.90;99.90;;;15.72;53.62;99600.50;4994684;27;98462;-49
2021/11/03 09:04:31;;;;;;;8.90;6.83;;;14.70;99.90;;;15.64;56.53;99606.41;4966326;27;99932;-49
2021/11/03 09:06:58;;;;;;;8.50;6.90;;;14.60;99.90;;;15.52;56.59;99609.06;4969717;28;98634;-47
2021/11/03 09:09:25;;;;;;;7.77;6.97;;;14.50;99.90;;;15.51;57.15;99597.59;4965937;27;96774;-50
2021/11/03 09:11:51;;;;;;;3.83;3.43;;;14.50;99.90;;;15.62;57.37;99600.34;4973884;28;99617;-52
2021/11/03 09:14:20;;;;;;;9.23;6.50;;;14.70;99.90;;;15.30;53.06;99599.97;5000335;27;99226;-54
2021/11/03 09:16:49;;;;;;;7.20;6.50;;;14.50;99.90;;;15.45;57.73;99613.94;4968954;28;99349;-51
2021/11/03 09:19:15;;;;;;;3.67;2.50;;;14.60;99.90;;;15.53;57.63;99600.97;4990663;27;98694;-53
2021/11/03 09:21:41;;;;;;;5.27;4.60;;;14.70;99.90;;;15.60;57.54;99606.72;4969676;27;100559;-49
2021/11/03 09:24:07;;;;;;;8.50;6.87;;;14.80;99.90;;;15.34;52.87;99600.63;4968954;27;97578;-50
2021/11/03 09:26:33;;;;;;;11.83;7.70;;;14.60;99.90;;;14.95;54.52;99610.44;4998682;27;102239;-51
2021/11/03 09:29:02;;;;;;;12.00;7.90;;;14.20;99.90;;;14.74;54.76;99615.44;5001789;27;99736;-52
2021/11/03 09:31:29;;;;;;;2.30;2.10;;;14.00;99.90;;;15.16;58.71;99608.06;4962424;27;99723;-49
2021/11/03 09:33:59;;;;;;;2.40;1.83;;;14.40;99.90;;;15.62;57.83;99608.31;4971114;27;99908;-49
2021/11/03 09:36:26;;;;;;;2.80;1.80;;;15.10;99.90;;;16.08;56.42;99606.72;4955574;27;97813;-51
2021/11/03 09:38:53;;;;;;;1.53;1.40;;;15.80;99.90;;;16.49;55.15;99600.91;4972335;28;100104;-52
2021/11/03 09:41:50;;;;;;;2.00;1.70;;;16.40;99.90;;;16.87;53.93;99596.16;4964965;27;97810;-56
2021/11/03 09:44:29;;;;;;;2.10;1.50;;;16.80;99.90;;;17.17;53.22;99598.22;4964775;28;98236;-50
2021/11/03 09:47:15;;;;;;;3.53;1.73;;;17.20;99.90;;;17.47;52.32;99591.41;4950160;28;101002;-50
2021/11/03 09:49:45;;;;;;;4.13;2.70;;;17.50;99.90;;;17.69;51.54;99593.22;4994000;27;98139;-52
2021/11/03 09:52:20;;;;;;;1.90;1.40;;;17.80;99.90;;;17.88;51.03;99593.41;4985652;27;99667;-53
2021/11/03 09:54:54;;;;;;;2.57;1.50;;;18.00;99.90;;;18.01;50.79;99590.56;4965295;28;103403;-50
2021/11/03 09:57:50;;;;;;;2.73;1.47;;;18.10;98.90;;;18.16;50.31;99596.44;4966735;27;98247;-48
2021/11/03 10:00:45;;;;;;;2.57;1.50;;;18.20;99.10;;;18.27;50.17;99593.72;4986806;27;98218;-47
2021/11/03 10:03:22;;;;;;;1.50;1.40;;;18.40;98.80;;;18.36;49.71;99590.25;4965131;27;101880;-48
2021/11/03 10:06:25;;;;;;;2.10;1.30;;;18.40;98.40;;;18.40;49.77;99591.72;4988354;27;97139;-48
2021/11/03 10:08:53;;;;;;;1.60;1.30;;;18.40;98.60;;;18.40;49.80;99579.22;4966379;27;98517;-49
2021/11/03 10:11:29;;;;;;;3.60;1.50;;;18.50;98.60;;;18.50;49.45;99595.28;4964215;27;97965;-52
2021/11/03 10:13:58;;;;;;;2.53;1.30;;;18.50;98.50;;;18.54;49.48;99586.03;4967004;28;102640;-48
2021/11/03 10:16:38;;;;;;;1.80;1.40;;;18.60;98.10;;;18.54;49.41;99586.03;4964013;27;97242;-52
2021/11/03 10:19:30;;;;;;;1.80;1.40;;;18.60;98.30;;;18.56;49.43;99594.75;4965576;28;98169;-48
2021/11/03 10:22:31;;;;;;;2.83;2.10;;;18.50;98.30;;;18.50;49.36;99587.25;4967466;27;98802;-47
2021/11/03 10:25:21;;;;;;;1.60;1.30;;;18.40;97.00;;;18.40;49.53;99584.56;4990404;27;100614;-50